Crossville, TN (38555)

8:49 AM CDT on August 30, 2016 (GMT -0500)
Brookstone Dr. | | Change Station

Elev 1841 ft 35.96 °N, 85.00 °W | Updated 12 seconds ago

Clear
Clear
85.5 °F
Feels Like 91 °F
N
0.0
Wind Variable Wind from SSE

Today
High -- | Low -- °F
--% Chance of Precip.
Yesterday
High -- | Low -- °F
Precip. -- in
Pressure 30.12 in
Visibility 10.0 miles
Clouds Clear
Heat Index 91 °F
Dew Point 71 °F
Humidity 63%
Rainfall 0.00 in
Snow Depth Not available.
6:10 AM 7:09 PM
Waning Crescent, 3% visible
METAR KCSV 301253Z AUTO 00000KT 10SM CLR 23/20 A3019 RMK AO2 SLP200 T02330200
Pressure 30.12 in
Visibility 10.0 miles
Clouds Clear
Heat Index 91 °F
Dew Point 71 °F
Humidity 63%
Rainfall 0.00 in
Snow Depth Not available.
6:10 AM 7:09 PM
Waning Crescent, 3% visible
METAR KCSV 301253Z AUTO 00000KT 10SM CLR 23/20 A3019 RMK AO2 SLP200 T02330200

10-Day Weather Forecast

Almanac

Astronomy

Aug. 30, 2016 Rise Set
Actual Time
Civil Twilight
Nautical Twilight
Astronomical Twilight
Moon
Length of Visible Light
Length of Day
Tomorrow will be .
, % of the Moon is Illuminated

Today's Extremes

State Highs State Lows

Community

WunderPhotos

Upload Photos

1,935,833 photos uploaded!

WunderBlog® & News

Nearby

Air Quality

  Air Quality AQ Index Pollutant
Not available.

Snow Depth

Station Depth Elevation

Earthquake Activity

City Distance Mag. Time & Date
Minimum magnitude displayed is 2.5.

Coastal Water Temperatures

Place Temperature

Stations

Nearby Weather Stations

Station Location Temp. Windchill Dew Point Humidity Wind Precip. Elev Updated Type
                   

Watches & Warnings

There are currently no watches in effect.